createdAt,value
2019-03-21T05:04:07.139Z,8.460693
2019-03-21T05:07:35.041Z,8.490906
2019-03-21T05:11:02.930Z,8.521118
2019-03-21T05:14:31.787Z,8.531189
2019-03-21T05:18:00.348Z,8.561401
2019-03-21T05:21:28.250Z,8.591614
2019-03-21T05:24:56.123Z,8.591614
2019-03-21T05:28:24.012Z,8.601685
2019-03-21T05:31:52.065Z,8.601685
2019-03-21T05:35:21.003Z,8.621826
2019-03-21T05:38:49.101Z,8.621826
2019-03-21T05:42:16.982Z,8.631897
2019-03-21T05:45:44.862Z,8.682251
2019-03-21T05:49:12.745Z,8.712463
2019-03-21T05:52:40.627Z,8.742676
2019-03-21T05:56:08.512Z,8.752747
2019-03-21T05:59:36.640Z,8.752747
2019-03-21T06:03:04.506Z,8.782959
2019-03-21T06:06:32.389Z,8.853455
2019-03-21T06:10:00.355Z,8.903809
2019-03-21T06:13:28.144Z,8.934021
2019-03-21T06:16:56.026Z,8.984375
2019-03-21T06:20:23.898Z,9.014587
2019-03-21T06:23:52.079Z,9.034729
2019-03-21T06:27:19.980Z,9.034729
2019-03-21T06:30:48.384Z,9.0448
2019-03-21T06:34:17.340Z,9.105225
2019-03-21T06:37:47.210Z,9.155579
2019-03-21T06:41:15.769Z,9.256287
2019-03-21T06:44:43.316Z,9.286499
2019-03-21T06:48:11.204Z,9.316711
2019-03-21T06:51:39.101Z,9.407349
2019-03-21T06:55:07.012Z,9.497986
2019-03-21T06:58:34.911Z,9.598694
2019-03-21T07:02:02.795Z,9.669189
2019-03-21T07:05:31.027Z,9.699402
2019-03-21T07:08:58.921Z,9.779968
2019-03-21T07:12:26.877Z,9.910889
2019-03-21T07:15:54.751Z,10.021667
2019-03-21T07:19:22.640Z,10.092163
2019-03-21T07:22:51.560Z,10.142517
2019-03-21T07:26:19.740Z,10.202942
2019-03-21T07:29:48.037Z,10.273438
2019-03-21T07:33:15.871Z,10.343933
2019-03-21T07:36:43.765Z,10.384216
2019-03-21T07:40:11.662Z,10.454712
2019-03-21T07:43:39.544Z,10.494995
2019-03-21T07:47:12.484Z,10.494995
2019-03-21T07:50:38.977Z,10.565491
2019-03-21T07:54:06.973Z,10.615845
2019-03-21T07:57:34.858Z,10.666199
2019-03-21T08:01:02.842Z,10.716553
2019-03-21T08:04:30.714Z,10.756836
2019-03-21T08:07:59.923Z,10.827332
2019-03-21T08:11:27.805Z,10.897827
2019-03-21T08:14:56.429Z,10.817261
2019-03-21T08:18:24.314Z,10.787048
2019-03-21T08:21:52.203Z,10.726624
2019-03-21T08:25:21.072Z,10.797119
2019-03-21T08:28:49.922Z,10.978394
2019-03-21T08:32:18.055Z,11.038818
2019-03-21T08:35:45.925Z,10.998535
2019-03-21T08:39:13.809Z,11.079102
2019-03-21T08:42:41.760Z,11.008606
2019-03-21T08:46:09.619Z,11.008606
2019-03-21T08:49:38.203Z,11.038818
2019-03-21T08:53:06.087Z,11.079102
2019-03-21T08:56:33.968Z,11.028748
2019-03-21T09:00:01.836Z,11.038818
2019-03-21T09:03:30.725Z,11.159668
2019-03-21T09:06:58.623Z,11.18988
2019-03-21T09:10:28.165Z,11.280518
2019-03-21T09:13:58.045Z,11.270447
2019-03-21T09:17:26.026Z,11.18988
2019-03-21T09:20:53.899Z,11.270447
2019-03-21T09:24:21.787Z,11.31073
2019-03-21T09:27:50.109Z,11.451721
2019-03-21T09:31:24.818Z,11.522217
2019-03-21T09:34:52.745Z,11.592712
2019-03-21T09:38:20.664Z,11.69342
2019-03-21T09:41:48.579Z,11.743774
2019-03-21T09:45:16.517Z,11.743774
2019-03-21T09:48:44.401Z,11.794128
2019-03-21T09:52:12.517Z,11.763916
2019-03-21T09:55:40.412Z,12.247314
2019-03-21T09:59:08.305Z,12.710571
2019-03-21T10:02:36.303Z,12.992554
2019-03-21T10:06:04.199Z,12.962341
2019-03-21T10:09:32.111Z,13.093262
2019-03-21T10:13:01.380Z,13.093262
2019-03-21T10:16:29.259Z,13.264465
2019-03-21T10:19:57.142Z,13.526306
2019-03-21T10:23:25.043Z,13.606873
2019-03-21T10:26:53.513Z,13.637085
2019-03-21T10:30:22.461Z,13.788147
2019-03-21T10:33:50.345Z,13.667297
2019-03-21T10:37:18.998Z,13.536377
2019-03-21T10:40:46.885Z,13.707581
2019-03-21T10:44:14.774Z,13.778076
2019-03-21T10:47:42.701Z,13.788147
2019-03-21T10:51:10.714Z,14.231262
2019-03-21T10:54:39.362Z,14.362183
2019-03-21T10:58:07.251Z,14.221191
2019-03-21T11:01:35.114Z,13.898926
2019-03-21T11:05:03.003Z,13.647156
2019-03-21T11:08:30.875Z,13.727722
2019-03-21T11:11:58.752Z,13.939209
2019-03-21T11:15:28.354Z,14.180908
2019-03-21T11:18:56.223Z,14.372253
2019-03-21T11:22:24.093Z,14.493103
2019-03-21T11:25:52.003Z,14.311829
2019-03-21T11:29:19.927Z,14.150696
2019-03-21T11:32:47.851Z,14.33197
2019-03-21T11:36:16.200Z,14.261475
2019-03-21T11:39:44.926Z,14.362183
2019-03-21T11:43:12.824Z,14.855652
2019-03-21T11:46:40.704Z,14.553528
2019-03-21T11:50:08.838Z,14.301758
2019-03-21T11:53:37.546Z,14.926147
2019-03-21T11:57:05.885Z,15.933228
2019-03-21T12:00:42.515Z,16.366272
2019-03-21T12:04:07.497Z,15.721741
2019-03-21T12:07:35.394Z,15.510254
2019-03-21T12:11:03.263Z,15.006714
2019-03-21T12:14:31.160Z,14.775085
2019-03-21T12:17:59.218Z,14.865723
2019-03-21T12:21:27.090Z,14.855652
2019-03-21T12:24:54.978Z,14.734802
2019-03-21T12:28:23.852Z,14.785156
2019-03-21T12:31:51.923Z,14.593811
2019-03-21T12:35:19.773Z,14.342041
2019-03-21T12:38:48.918Z,14.110413
2019-03-21T12:42:16.779Z,13.908997
2019-03-21T12:45:44.668Z,13.717651
2019-03-21T12:49:12.564Z,13.637085
2019-03-21T12:52:41.494Z,13.57666
2019-03-21T12:56:09.335Z,13.566589
2019-03-21T12:59:37.741Z,13.455811
2019-03-21T13:03:05.591Z,13.425598
2019-03-21T13:06:33.487Z,13.163757
2019-03-21T13:10:01.388Z,13.063049
2019-03-21T13:13:29.327Z,12.831421
2019-03-21T13:16:57.214Z,12.841492
2019-03-21T13:20:25.543Z,12.871704
2019-03-21T13:23:53.263Z,12.710571
2019-03-21T13:27:21.139Z,12.650146
2019-03-21T13:30:49.905Z,12.549438
2019-03-21T13:34:17.897Z,12.468872
2019-03-21T13:37:45.769Z,12.499084
2019-03-21T13:41:14.981Z,12.760925
2019-03-21T13:44:42.790Z,12.992554
2019-03-21T13:48:10.671Z,12.932129
2019-03-21T13:51:38.544Z,12.861633
2019-03-21T13:55:07.422Z,12.962341
2019-03-21T13:58:35.315Z,13.012695
2019-03-21T14:02:03.558Z,12.911987
2019-03-21T14:05:32.352Z,12.881775
2019-03-21T14:09:00.633Z,12.831421
2019-03-21T14:12:29.848Z,13.012695
2019-03-21T14:15:58.719Z,12.791138
2019-03-21T14:19:28.441Z,12.650146
2019-03-21T14:22:58.842Z,12.609863
2019-03-21T14:26:28.701Z,12.327881
2019-03-21T14:30:01.424Z,12.31781
2019-03-21T14:33:27.791Z,12.287598
2019-03-21T14:36:55.696Z,12.227173
2019-03-21T14:40:23.594Z,12.126465
2019-03-21T14:43:51.801Z,12.136536
2019-03-21T14:47:19.669Z,12.106323
2019-03-21T14:50:50.556Z,12.348022
2019-03-21T14:54:18.478Z,12.176819
2019-03-21T14:57:46.339Z,12.025757
2019-03-21T15:01:15.932Z,11.794128
2019-03-21T15:04:43.784Z,11.733704
2019-03-21T15:08:11.707Z,11.612854
2019-03-21T15:11:39.999Z,11.461792
2019-03-21T15:15:07.802Z,11.461792
2019-03-21T15:18:35.677Z,11.411438
2019-03-21T15:22:03.557Z,11.451721
2019-03-21T15:25:31.635Z,11.361084
2019-03-21T15:28:59.434Z,11.361084
2019-03-21T15:32:27.458Z,11.371155
2019-03-21T15:35:55.344Z,11.401367
2019-03-21T15:39:23.292Z,11.371155
2019-03-21T15:42:51.157Z,11.371155
2019-03-21T15:46:20.041Z,11.340942
2019-03-21T15:49:47.954Z,11.330872
2019-03-21T15:53:15.919Z,11.340942
2019-03-21T15:56:43.803Z,11.361084
2019-03-21T16:00:11.843Z,11.330872
2019-03-21T16:03:39.860Z,11.300659
2019-03-21T16:07:07.906Z,11.270447
2019-03-21T16:10:35.798Z,11.270447
2019-03-21T16:14:03.674Z,11.330872
2019-03-21T16:17:32.576Z,11.411438
2019-03-21T16:21:00.479Z,11.492004
2019-03-21T16:24:29.312Z,11.43158
2019-03-21T16:27:57.526Z,11.43158
2019-03-21T16:31:25.531Z,11.381226
2019-03-21T16:34:53.423Z,11.361084
2019-03-21T16:38:22.131Z,11.340942
2019-03-21T16:41:50.014Z,11.300659
2019-03-21T16:45:17.898Z,11.31073
2019-03-21T16:48:46.981Z,11.250305
2019-03-21T16:52:14.864Z,11.250305
2019-03-21T16:55:42.767Z,11.220093
2019-03-21T16:59:10.646Z,11.220093
2019-03-21T17:02:38.631Z,11.199951
2019-03-21T17:06:06.527Z,11.199951
2019-03-21T17:09:34.406Z,11.17981
2019-03-21T17:13:04.500Z,11.18988
2019-03-21T17:16:32.460Z,11.17981
2019-03-21T17:20:00.504Z,11.18988
2019-03-21T17:23:31.150Z,11.18988
2019-03-21T17:26:59.145Z,11.159668
2019-03-21T17:30:29.202Z,11.159668
2019-03-21T17:33:57.034Z,11.129456
2019-03-21T17:37:25.945Z,11.119385
2019-03-21T17:40:53.848Z,11.119385
2019-03-21T17:44:21.731Z,11.119385
2019-03-21T17:47:49.868Z,11.109314
2019-03-21T17:51:17.865Z,11.089172
2019-03-21T17:54:45.761Z,11.089172
2019-03-21T17:58:13.627Z,11.089172
2019-03-21T18:01:41.535Z,11.048889
2019-03-21T18:05:09.416Z,11.048889
2019-03-21T18:08:37.355Z,11.038818
2019-03-21T18:12:06.055Z,11.028748
2019-03-21T18:15:33.930Z,11.028748
2019-03-21T18:19:01.810Z,11.008606
2019-03-21T18:22:29.748Z,11.008606
2019-03-21T18:25:57.656Z,10.978394
2019-03-21T18:29:25.547Z,10.978394
2019-03-21T18:32:53.480Z,10.978394
2019-03-21T18:36:21.428Z,10.968323
2019-03-21T18:39:49.296Z,10.93811
2019-03-21T18:43:17.205Z,10.93811
2019-03-21T18:46:45.109Z,10.907898
2019-03-21T18:50:13.979Z,10.867615
2019-03-21T18:53:41.873Z,10.867615
2019-03-21T18:57:10.869Z,10.867615
2019-03-21T19:00:38.926Z,10.857544
2019-03-21T19:04:06.911Z,10.847473
2019-03-21T19:07:34.861Z,10.847473
2019-03-21T19:11:02.755Z,10.827332
2019-03-21T19:14:30.637Z,10.817261
2019-03-21T19:17:58.847Z,10.817261
2019-03-21T19:21:26.744Z,10.787048
2019-03-21T19:24:54.616Z,10.756836
2019-03-21T19:28:22.518Z,10.756836
2019-03-21T19:31:50.700Z,10.67627
2019-03-21T19:35:25.547Z,10.575562
2019-03-21T19:38:53.410Z,10.484924
2019-03-21T19:42:21.297Z,10.364075
2019-03-21T19:45:49.177Z,10.283508
2019-03-21T19:49:20.664Z,10.243225
2019-03-21T19:52:56.015Z,10.142517
2019-03-21T19:56:30.408Z,10.082092
2019-03-21T20:00:08.083Z,10.021667
2019-03-21T20:04:59.268Z,9.991455
2019-03-21T20:08:27.202Z,9.961243
2019-03-21T20:11:55.092Z,9.941101
2019-03-21T20:15:23.760Z,9.93103
2019-03-21T20:18:52.395Z,9.93103
2019-03-21T20:22:20.962Z,9.910889
2019-03-21T20:25:48.978Z,9.910889
2019-03-21T20:29:21.026Z,9.870605
2019-03-21T20:33:00.284Z,9.850464
2019-03-21T20:36:32.775Z,9.840393
2019-03-21T20:40:08.395Z,9.810181
2019-03-21T20:43:36.725Z,9.80011
2019-03-21T20:47:04.723Z,9.769897
2019-03-21T20:50:33.752Z,9.749756
2019-03-21T20:54:01.610Z,9.749756
2019-03-21T20:57:29.500Z,9.749756
2019-03-21T21:00:58.183Z,9.699402
2019-03-21T21:04:26.105Z,9.669189
2019-03-21T21:07:53.999Z,9.689331
2019-03-21T21:11:21.948Z,9.699402
2019-03-21T21:14:49.873Z,9.689331
2019-03-21T21:18:17.774Z,9.689331
2019-03-21T21:21:45.668Z,9.669189
2019-03-21T21:25:13.564Z,9.659119
2019-03-21T21:28:41.523Z,9.669189
2019-03-21T21:32:09.620Z,9.649048
2019-03-21T21:35:37.526Z,9.649048
2019-03-21T21:39:05.443Z,9.649048
2019-03-21T21:42:34.331Z,9.618835
2019-03-21T21:46:02.222Z,9.649048
2019-03-21T21:49:30.118Z,9.628906
2019-03-21T21:52:58.069Z,9.618835
2019-03-21T21:56:25.938Z,9.598694
2019-03-21T21:59:53.914Z,9.598694
2019-03-21T22:03:22.642Z,9.598694
2019-03-21T22:06:51.517Z,9.568481
2019-03-21T22:10:19.370Z,9.588623
2019-03-21T22:13:48.849Z,9.588623
2019-03-21T22:17:16.723Z,9.588623
2019-03-21T22:20:44.590Z,9.588623
2019-03-21T22:24:12.482Z,9.598694
2019-03-21T22:27:40.361Z,9.628906
2019-03-21T22:31:08.284Z,9.598694
2019-03-21T22:34:37.177Z,9.618835
2019-03-21T22:38:05.082Z,9.598694
2019-03-21T22:41:33.099Z,9.568481
2019-03-21T22:45:00.984Z,9.518127
2019-03-21T22:48:28.884Z,9.447632
2019-03-21T22:51:56.819Z,9.367065
2019-03-21T22:55:24.729Z,9.326782
2019-03-21T22:58:52.617Z,9.286499
